nws-alerts: Checking more than four warning/county codes can delay the loading of your pages. You should use a cron job to get the data.
EllijayWeather Station Historical Data
Daily Summary for November 9, 2018 Units:  English    Metric   Both
Daily Weekly Monthly Yearly Custom
  High: Low: Average:
Temperature: 57.2 °F 40.8 °F 52.4 °F
Dew Point: 44.1 °F 27.9 °F 35.1 °F
Humidity: 66% 45% 52%
Wind Speed: 4.9mph 0.0mph 0.1mph
Wind Gust: 8.0mph - -
Wind- - WNW
Pressure: 30.19 in 30.01 in -
Precipitation: 0.66 in    
Historical Graphs
 
 
Tabular Data for November 9, 2018
Time Temperature Dew Point Pressure Wind Wind Speed Wind Gust Humidity Rainfall Rate (Hourly) solar
00:03 55.2 °F 44.1 °F 30.13 in Calm     66% 0.00 in meteobridge W/m2
00:09 55.2 °F 44.1 °F 30.13 in Calm     66% 0.00 in meteobridge W/m2
00:14 55.2 °F 43.7 °F 30.13 in Calm     65% 0.00 in meteobridge W/m2
00:18 55.4 °F 43.9 °F 30.13 in Calm     65% 0.00 in meteobridge W/m2
00:24 55.2 °F 43.3 °F 30.13 in Calm     64% 0.00 in meteobridge W/m2
00:29 55.2 °F 43.3 °F 30.13 in Calm     64% 0.00 in meteobridge W/m2
00:30 55.2 °F 42.8 °F 30.13 in Calm     63% 0.00 in meteobridge W/m2
00:38 55.2 °F 42.8 °F 30.13 in Calm     63% 0.00 in meteobridge W/m2
00:44 55.2 °F 42.4 °F 30.12 in Calm     62% 0.00 in meteobridge W/m2
00:49 55.2 °F 42.4 °F 30.12 in Calm     62% 0.00 in meteobridge W/m2
00:54 55.2 °F 42.4 °F 30.12 in Calm     62% 0.00 in meteobridge W/m2
00:58 55.4 °F 42.6 °F 30.11 in Calm     62% 0.00 in meteobridge W/m2
01:03 55.4 °F 42.6 °F 30.11 in Calm     62% 0.00 in meteobridge W/m2
01:09 55.4 °F 43.0 °F 30.11 in Calm     63% 0.00 in meteobridge W/m2
01:14 55.6 °F 43.2 °F 30.11 in Calm     63% 0.00 in meteobridge W/m2
01:19 55.6 °F 43.2 °F 30.11 in Calm     63% 0.00 in meteobridge W/m2
01:24 55.6 °F 43.2 °F 30.11 in Calm     63% 0.00 in meteobridge W/m2
01:28 55.6 °F 43.2 °F 30.11 in Calm     63% 0.00 in meteobridge W/m2
01:33 55.6 °F 43.2 °F 30.11 in Calm     63% 0.00 in meteobridge W/m2
01:38 55.8 °F 43.3 °F 30.10 in Calm     63% 0.00 in meteobridge W/m2
01:44 55.9 °F 43.5 °F 30.11 in Calm     63% 0.00 in meteobridge W/m2
01:49 55.9 °F 43.2 °F 30.11 in Calm     62% 0.00 in meteobridge W/m2
01:53 56.1 °F 43.3 °F 30.11 in Calm     62% 0.00 in meteobridge W/m2
01:59 56.1 °F 43.3 °F 30.10 in Calm     62% 0.00 in meteobridge W/m2
02:04 56.5 °F 43.7 °F 30.10 in Calm     62% 0.00 in meteobridge W/m2
02:09 56.5 °F 43.7 °F 30.10 in Calm     62% 0.00 in meteobridge W/m2
02:14 56.7 °F 43.7 °F 30.09 in Calm     62% 0.00 in meteobridge W/m2
02:19 56.7 °F 43.7 °F 30.09 in Calm     62% 0.00 in meteobridge W/m2
02:24 56.8 °F 43.5 °F 30.09 in Calm     61% 0.00 in meteobridge W/m2
02:29 56.8 °F 43.5 °F 30.09 in Calm     61% 0.00 in meteobridge W/m2
02:34 56.8 °F 43.5 °F 30.09 in Calm     61% 0.00 in meteobridge W/m2
02:39 56.8 °F 43.5 °F 30.09 in Calm     61% 0.00 in meteobridge W/m2
02:44 57.0 °F 43.7 °F 30.09 in Calm     61% 0.00 in meteobridge W/m2
02:49 57.0 °F 43.7 °F 30.09 in Calm     61% 0.00 in meteobridge W/m2
02:54 57.0 °F 43.7 °F 30.09 in Calm     61% 0.00 in meteobridge W/m2
02:59 57.0 °F 43.7 °F 30.09 in Calm     61% 0.00 in meteobridge W/m2
03:04 57.0 °F 43.7 °F 30.09 in Calm     61% 0.00 in meteobridge W/m2
03:09 57.2 °F 43.5 °F 30.09 in Calm     60% 0.00 in meteobridge W/m2
03:14 57.0 °F 42.8 °F 30.09 in Calm     59% 0.00 in meteobridge W/m2
03:19 57.0 °F 42.8 °F 30.09 in Calm     59% 0.00 in meteobridge W/m2
03:23 57.0 °F 42.4 °F 30.09 in Calm     58% 0.00 in meteobridge W/m2
03:29 56.8 °F 42.3 °F 30.09 in Calm     58% 0.00 in meteobridge W/m2
03:34 56.8 °F 42.3 °F 30.08 in Calm     58% 0.00 in meteobridge W/m2
03:39 56.8 °F 42.3 °F 30.08 in Calm     58% 0.00 in meteobridge W/m2
03:43 56.8 °F 42.6 °F 30.08 in Calm     59% 0.00 in meteobridge W/m2
03:48 56.8 °F 43.2 °F 30.08 in Calm     60% 0.00 in meteobridge W/m2
03:54 56.8 °F 43.2 °F 30.08 in Calm     60% 0.00 in meteobridge W/m2
03:58 56.8 °F 43.5 °F 30.08 in Calm     61% 0.00 in meteobridge W/m2
04:02 56.8 °F 43.5 °F 30.08 in Calm     61% 0.00 in meteobridge W/m2
04:09 57.0 °F 43.7 °F 30.08 in Calm     61% 0.00 in meteobridge W/m2
04:13 56.8 °F 43.9 °F 30.07 in Calm     62% 0.00 in meteobridge W/m2
04:18 56.8 °F 43.5 °F 30.07 in Calm     61% 0.00 in meteobridge W/m2
04:24 56.7 °F 43.3 °F 30.07 in Calm     61% 0.00 in meteobridge W/m2
04:29 56.7 °F 43.3 °F 30.07 in Calm     61% 0.00 in meteobridge W/m2
04:33 56.7 °F 43.3 °F 30.06 in Calm     61% 0.00 in meteobridge W/m2
04:38 56.7 °F 43.3 °F 30.07 in Calm     61% 0.00 in meteobridge W/m2
04:44 56.5 °F 42.3 °F 30.06 in Calm     59% 0.03 in meteobridge W/m2
04:47 56.1 °F 41.5 °F 30.06 in Calm     58% 0.04 in meteobridge W/m2
04:54 55.8 °F 40.3 °F 30.06 in Calm     56% 0.04 in meteobridge W/m2
04:59 55.8 °F 39.9 °F 30.06 in Calm     55% 0.04 in meteobridge W/m2
05:02 55.6 °F 39.2 °F 30.06 in Calm     54% 0.04 in meteobridge W/m2
05:09 55.4 °F 38.5 °F 30.06 in Calm     53% 0.04 in meteobridge W/m2
05:13 55.2 °F 38.3 °F 30.06 in Calm     53% 0.05 in meteobridge W/m2
05:18 55.2 °F 38.3 °F 30.06 in Calm     53% 0.06 in meteobridge W/m2
05:24 55.0 °F 37.8 °F 30.06 in Calm     52% 0.07 in meteobridge W/m2
05:29 55.0 °F 37.8 °F 30.06 in Calm     52% 0.08 in meteobridge W/m2
05:34 55.0 °F 37.2 °F 30.06 in Calm     51% 0.08 in meteobridge W/m2
05:37 54.9 °F 37.0 °F 30.06 in Calm     51% 0.08 in meteobridge W/m2
05:48 54.9 °F 36.5 °F 30.06 in Calm     50% 0.05 in meteobridge W/m2
05:54 54.7 °F 36.3 °F 30.05 in Calm     50% 0.07 in meteobridge W/m2
05:59 54.7 °F 36.3 °F 30.04 in Calm     50% 0.07 in meteobridge W/m2
06:04 54.5 °F 36.3 °F 30.04 in Calm     50% 0.07 in meteobridge W/m2
06:08 54.3 °F 36.1 °F 30.04 in Calm     50% 0.08 in meteobridge W/m2
06:12 54.3 °F 36.1 °F 30.04 in Calm     50% 0.08 in meteobridge W/m2
06:19 54.3 °F 36.1 °F 30.05 in Calm     50% 0.07 in meteobridge W/m2
06:24 54.1 °F 36.0 °F 30.04 in Calm     50% 0.12 in meteobridge W/m2
06:27 54.1 °F 35.4 °F 30.04 in Calm     49% 0.13 in meteobridge W/m2
06:33 54.1 °F 35.4 °F 30.04 in Calm     49% 0.12 in meteobridge W/m2
06:39 54.1 °F 35.4 °F 30.04 in Calm     49% 0.12 in meteobridge W/m2
06:44 54.1 °F 35.4 °F 30.03 in Calm     49% 0.12 in meteobridge W/m2
06:48 54.1 °F 35.4 °F 30.03 in Calm     49% 0.11 in meteobridge W/m2
06:53 54.3 °F 35.1 °F 30.03 in Calm     48% 0.09 in meteobridge W/m2
07:04 54.3 °F 35.1 °F 30.04 in Calm     48% 0.09 in meteobridge W/m2
07:08 54.3 °F 35.1 °F 30.04 in Calm     48% 0.08 in meteobridge W/m2
07:14 54.3 °F 35.1 °F 30.04 in Calm     48% 0.09 in meteobridge W/m2
07:16 54.3 °F 35.1 °F 30.04 in Calm     48% 0.09 in meteobridge W/m2
07:24 54.1 °F 34.9 °F 30.04 in Calm     48% 0.02 in meteobridge W/m2
07:29 54.1 °F 34.9 °F 30.04 in Calm     48% 0.01 in meteobridge W/m2
07:34 54.1 °F 34.9 °F 30.04 in Calm     48% 0.01 in meteobridge W/m2
07:37 54.1 °F 34.9 °F 30.04 in Calm     48% 0.01 in meteobridge W/m2
07:42 54.1 °F 34.9 °F 30.04 in Calm     48% 0.01 in meteobridge W/m2
07:48 54.1 °F 34.9 °F 30.03 in Calm     48% 0.01 in meteobridge W/m2
07:54 54.1 °F 34.9 °F 30.04 in Calm     48% 0.01 in meteobridge W/m2
07:59 54.1 °F 34.9 °F 30.05 in Calm     48% 0.01 in meteobridge W/m2
08:04 54.1 °F 34.9 °F 30.05 in Calm     48% 0.01 in meteobridge W/m2
08:09 54.1 °F 34.9 °F 30.06 in Calm     48% 0.04 in meteobridge W/m2
08:14 54.1 °F 34.9 °F 30.06 in Calm     48% 0.05 in meteobridge W/m2
08:18 54.0 °F 34.7 °F 30.06 in Calm     48% 0.07 in meteobridge W/m2
08:23 54.0 °F 35.2 °F 30.06 in Calm     49% 0.08 in meteobridge W/m2
08:28 53.8 °F 34.5 °F 30.06 in Calm     48% 0.08 in meteobridge W/m2
08:34 53.8 °F 35.1 °F 30.07 in Calm     49% 0.08 in meteobridge W/m2
08:39 53.8 °F 34.5 °F 30.06 in Calm     48% 0.09 in meteobridge W/m2
08:44 53.8 °F 34.5 °F 30.06 in Calm     48% 0.09 in meteobridge W/m2
08:49 53.8 °F 34.5 °F 30.07 in Calm     48% 0.09 in meteobridge W/m2
08:53 53.8 °F 34.5 °F 30.06 in Calm     48% 0.09 in meteobridge W/m2
08:59 53.8 °F 34.5 °F 30.06 in Calm     48% 0.09 in meteobridge W/m2
09:04 53.8 °F 34.5 °F 30.06 in Calm     48% 0.09 in meteobridge W/m2
09:09 53.8 °F 34.5 °F 30.06 in Calm     48% 0.07 in meteobridge W/m2
09:14 53.8 °F 34.5 °F 30.05 in Calm     48% 0.04 in meteobridge W/m2
09:19 53.6 °F 34.3 °F 30.05 in Calm     48% 0.02 in meteobridge W/m2
09:23 53.6 °F 34.3 °F 30.05 in Calm     48% 0.03 in meteobridge W/m2
09:28 53.4 °F 34.2 °F 30.05 in Calm     48% 0.03 in meteobridge W/m2
09:34 53.4 °F 34.2 °F 30.05 in Calm     48% 0.03 in meteobridge W/m2
09:39 53.4 °F 34.2 °F 30.06 in Calm     48% 0.02 in meteobridge W/m2
09:44 53.4 °F 34.2 °F 30.07 in Calm     48% 0.07 in meteobridge W/m2
09:49 53.8 °F 34.5 °F 30.09 in Calm     48% 0.13 in meteobridge W/m2
09:53 54.0 °F 34.2 °F 30.08 in Calm     47% 0.17 in meteobridge W/m2
09:59 54.0 °F 34.2 °F 30.07 in Calm     47% 0.23 in meteobridge W/m2
10:04 54.0 °F 34.2 °F 30.08 in Calm     47% 0.27 in meteobridge W/m2
10:09 54.0 °F 34.2 °F 30.08 in Calm     47% 0.28 in meteobridge W/m2
10:13 53.8 °F 34.0 °F 30.08 in Calm     47% 0.28 in meteobridge W/m2
10:19 53.6 °F 33.8 °F 30.08 in Calm     47% 0.30 in meteobridge W/m2
10:23 53.6 °F 33.8 °F 30.08 in Calm     47% 0.29 in meteobridge W/m2
10:29 53.6 °F 33.8 °F 30.09 in Calm     47% 0.28 in meteobridge W/m2
10:34 53.6 °F 33.8 °F 30.09 in Calm     47% 0.28 in meteobridge W/m2
10:39 53.8 °F 34.0 °F 30.08 in Calm     47% 0.28 in meteobridge W/m2
10:43 53.8 °F 34.0 °F 30.08 in Calm     47% 0.26 in meteobridge W/m2
10:49 54.0 °F 34.2 °F 30.07 in Calm     47% 0.18 in meteobridge W/m2
10:54 54.1 °F 34.3 °F 30.08 in Calm     47% 0.14 in meteobridge W/m2
10:59 54.1 °F 34.3 °F 30.07 in Calm     47% 0.08 in meteobridge W/m2
11:04 54.3 °F 34.0 °F 30.07 in Calm     46% 0.04 in meteobridge W/m2
11:09 54.1 °F 33.8 °F 30.07 in Calm     46% 0.03 in meteobridge W/m2
11:13 54.3 °F 34.0 °F 30.07 in Calm     46% 0.02 in meteobridge W/m2
11:17 54.3 °F 34.0 °F 30.06 in Calm     46% 0.02 in meteobridge W/m2
11:24 54.3 °F 34.0 °F 30.06 in Calm     46% 0.01 in meteobridge W/m2
11:28 54.3 °F 34.0 °F 30.06 in Calm     46% 0.01 in meteobridge W/m2
11:33 54.3 °F 34.0 °F 30.06 in Calm     46% 0.01 in meteobridge W/m2
11:39 54.5 °F 34.2 °F 30.07 in Calm     46% 0.01 in meteobridge W/m2
11:44 54.7 °F 34.3 °F 30.06 in Calm     46% 0.00 in meteobridge W/m2
11:48 54.7 °F 34.3 °F 30.06 in Calm     46% 0.00 in meteobridge W/m2
11:54 54.7 °F 34.3 °F 30.06 in Calm     46% 0.00 in meteobridge W/m2
11:59 54.7 °F 34.3 °F 30.05 in Calm     46% 0.00 in meteobridge W/m2
12:04 54.9 °F 34.5 °F 30.05 in Calm     46% 0.00 in meteobridge W/m2
12:09 55.0 °F 34.7 °F 30.05 in Calm     46% 0.00 in meteobridge W/m2
12:12 55.0 °F 34.7 °F 30.05 in Calm     46% 0.00 in meteobridge W/m2
12:19 55.2 °F 34.9 °F 30.05 in Calm     46% 0.00 in meteobridge W/m2
12:24 55.0 °F 34.7 °F 30.05 in Calm     46% 0.00 in meteobridge W/m2
12:29 55.0 °F 34.7 °F 30.04 in Calm     46% 0.00 in meteobridge W/m2
12:34 55.2 °F 34.9 °F 30.05 in Calm     46% 0.00 in meteobridge W/m2
12:39 55.2 °F 34.9 °F 30.05 in Calm     46% 0.00 in meteobridge W/m2
12:43 55.2 °F 34.9 °F 30.04 in Calm     46% 0.00 in meteobridge W/m2
12:49 55.4 °F 34.3 °F 30.04 in Calm     45% 0.00 in meteobridge W/m2
12:54 55.4 °F 34.3 °F 30.04 in Calm     45% 0.00 in meteobridge W/m2
12:59 55.6 °F 34.5 °F 30.04 in Calm     45% 0.00 in meteobridge W/m2
13:04 55.6 °F 34.5 °F 30.03 in Calm     45% 0.00 in meteobridge W/m2
13:09 55.6 °F 34.5 °F 30.03 in Calm     45% 0.00 in meteobridge W/m2
13:14 55.6 °F 34.5 °F 30.03 in Calm     45% 0.00 in meteobridge W/m2
13:19 55.8 °F 34.7 °F 30.02 in Calm     45% 0.00 in meteobridge W/m2
13:24 55.8 °F 34.7 °F 30.02 in Calm     45% 0.00 in meteobridge W/m2
13:29 55.8 °F 34.7 °F 30.02 in Calm     45% 0.00 in meteobridge W/m2
13:34 55.8 °F 34.7 °F 30.02 in Calm     45% 0.00 in meteobridge W/m2
13:39 55.8 °F 34.7 °F 30.01 in Calm     45% 0.00 in meteobridge W/m2
13:44 55.8 °F 34.7 °F 30.02 in Calm     45% 0.00 in meteobridge W/m2
13:48 55.8 °F 34.7 °F 30.03 in Calm     45% 0.00 in meteobridge W/m2
13:53 55.8 °F 34.7 °F 30.02 in Calm     45% 0.00 in meteobridge W/m2
13:59 55.6 °F 34.5 °F 30.02 in Calm     45% 0.00 in meteobridge W/m2
14:04 55.6 °F 34.5 °F 30.02 in Calm     45% 0.00 in meteobridge W/m2
14:09 55.6 °F 34.5 °F 30.02 in Calm     45% 0.00 in meteobridge W/m2
14:12 55.8 °F 34.7 °F 30.03 in Calm     45% 0.00 in meteobridge W/m2
14:17 55.8 °F 34.7 °F 30.03 in Calm     45% 0.00 in meteobridge W/m2
14:23 55.8 °F 34.7 °F 30.03 in Calm     45% 0.00 in meteobridge W/m2
14:29 55.9 °F 34.9 °F 30.03 in Calm     45% 0.00 in meteobridge W/m2
14:34 56.1 °F 35.1 °F 30.03 in Calm     45% 0.00 in meteobridge W/m2
14:39 56.1 °F 35.1 °F 30.03 in Calm     45% 0.00 in meteobridge W/m2
14:43 56.1 °F 35.1 °F 30.03 in Calm     45% 0.00 in meteobridge W/m2
14:48 56.3 °F 35.2 °F 30.03 in Calm     45% 0.01 in meteobridge W/m2
14:54 56.3 °F 35.2 °F 30.04 in Calm     45% 0.01 in meteobridge W/m2
14:59 56.3 °F 35.2 °F 30.03 in Calm     45% 0.01 in meteobridge W/m2
15:04 56.3 °F 35.2 °F 30.04 in Calm     45% 0.01 in meteobridge W/m2
15:09 56.1 °F 35.1 °F 30.04 in Calm     45% 0.01 in meteobridge W/m2
15:13 56.1 °F 35.1 °F 30.03 in Calm     45% 0.01 in meteobridge W/m2
15:19 55.9 °F 34.9 °F 30.03 in Calm     45% 0.01 in meteobridge W/m2
15:24 55.9 °F 34.9 °F 30.03 in Calm     45% 0.01 in meteobridge W/m2
15:29 55.8 °F 34.7 °F 30.04 in Calm     45% 0.01 in meteobridge W/m2
15:34 55.8 °F 34.7 °F 30.03 in Calm     45% 0.01 in meteobridge W/m2
15:39 55.8 °F 34.7 °F 30.04 in Calm     45% 0.01 in meteobridge W/m2
15:44 55.6 °F 34.5 °F 30.04 in Calm     45% 0.01 in meteobridge W/m2
15:49 55.6 °F 34.5 °F 30.03 in Calm     45% 0.00 in meteobridge W/m2
15:52 55.4 °F 34.3 °F 30.03 in Calm     45% 0.00 in meteobridge W/m2
15:58 55.4 °F 34.3 °F 30.03 in Calm     45% 0.01 in meteobridge W/m2
16:04 55.6 °F 34.5 °F 30.04 in Calm     45% 0.01 in meteobridge W/m2
16:09 55.6 °F 34.5 °F 30.04 in Calm     45% 0.01 in meteobridge W/m2
16:14 55.6 °F 34.5 °F 30.05 in Calm     45% 0.01 in meteobridge W/m2
16:19 55.6 °F 34.5 °F 30.05 in Calm     45% 0.01 in meteobridge W/m2
16:24 55.6 °F 34.5 °F 30.05 in Calm     45% 0.01 in meteobridge W/m2
16:27 55.6 °F 34.5 °F 30.05 in Calm     45% 0.02 in meteobridge W/m2
16:34 55.4 °F 34.3 °F 30.06 in Calm     45% 0.02 in meteobridge W/m2
16:39 55.0 °F 34.2 °F 30.06 in Calm     45% 0.02 in meteobridge W/m2
16:43 54.5 °F 33.6 °F 30.06 in Calm     45% 0.02 in meteobridge W/m2
16:49 54.1 °F 33.8 °F 30.07 in Calm     46% 0.02 in meteobridge W/m2
16:54 54.0 °F 33.6 °F 30.07 in Calm     46% 0.02 in meteobridge W/m2
16:59 53.4 °F 33.1 °F 30.08 in Calm     46% 0.01 in meteobridge W/m2
17:04 53.1 °F 32.9 °F 30.07 in Calm     46% 0.02 in meteobridge W/m2
17:09 52.5 °F 32.9 °F 30.07 in Calm     47% 0.02 in meteobridge W/m2
17:13 52.3 °F 32.7 °F 30.08 in Calm     47% 0.02 in meteobridge W/m2
17:19 51.6 °F 32.5 °F 30.07 in Calm     48% 0.02 in meteobridge W/m2
17:23 51.4 °F 32.4 °F 30.06 in Calm     48% 0.02 in meteobridge W/m2
17:28 51.3 °F 32.2 °F 30.07 in Calm     48% 0.01 in meteobridge W/m2
17:34 50.9 °F 31.8 °F 30.08 in Calm     48% 0.01 in meteobridge W/m2
17:39 50.5 °F 31.6 °F 30.08 in Calm     48% 0.01 in meteobridge W/m2
17:44 50.4 °F 31.5 °F 30.08 in Calm     48% 0.01 in meteobridge W/m2
17:49 50.2 °F 31.3 °F 30.07 in Calm     48% 0.01 in meteobridge W/m2
17:54 50.0 °F 31.1 °F 30.07 in Calm     48% 0.01 in meteobridge W/m2
17:57 50.0 °F 31.1 °F 30.08 in Calm     48% 0.01 in meteobridge W/m2
18:04 49.8 °F 30.9 °F 30.09 in Calm     48% 0.01 in meteobridge W/m2
18:09 49.8 °F 30.9 °F 30.09 in Calm     48% 0.00 in meteobridge W/m2
18:13 49.8 °F 30.9 °F 30.09 in Calm     48% 0.00 in meteobridge W/m2
18:19 49.6 °F 30.7 °F 30.09 in Calm     48% 0.00 in meteobridge W/m2
18:24 49.6 °F 30.7 °F 30.10 in Calm     48% 0.00 in meteobridge W/m2
18:29 49.6 °F 30.7 °F 30.10 in Calm     48% 0.00 in meteobridge W/m2
18:34 49.5 °F 30.6 °F 30.10 in Calm     48% 0.00 in meteobridge W/m2
18:39 49.5 °F 30.6 °F 30.09 in Calm     48% 0.00 in meteobridge W/m2
18:44 49.5 °F 30.6 °F 30.10 in Calm     48% 0.00 in meteobridge W/m2
18:47 49.5 °F 30.6 °F 30.10 in Calm     48% 0.00 in meteobridge W/m2
18:54 49.3 °F 30.4 °F 30.10 in Calm     48% 0.00 in meteobridge W/m2
18:58 49.1 °F 30.7 °F 30.11 in Calm     49% 0.00 in meteobridge W/m2
19:04 48.9 °F 30.6 °F 30.10 in Calm     49% 0.00 in meteobridge W/m2
19:09 48.7 °F 30.4 °F 30.10 in Calm     49% 0.00 in meteobridge W/m2
19:14 48.6 °F 30.2 °F 30.10 in Calm     49% 0.00 in meteobridge W/m2
19:19 48.4 °F 30.0 °F 30.10 in Calm     49% 0.00 in meteobridge W/m2
19:24 48.2 °F 30.0 °F 30.10 in Calm     49% 0.00 in meteobridge W/m2
19:28 48.0 °F 29.8 °F 30.11 in Calm     49% 0.00 in meteobridge W/m2
19:32 47.8 °F 29.7 °F 30.11 in Calm     49% 0.00 in meteobridge W/m2
19:39 47.7 °F 30.0 °F 30.12 in Calm     50% 0.00 in meteobridge W/m2
19:44 47.3 °F 29.7 °F 30.12 in Calm     50% 0.00 in meteobridge W/m2
19:49 47.1 °F 29.5 °F 30.13 in Calm     50% 0.00 in meteobridge W/m2
19:54 46.9 °F 29.3 °F 30.13 in Calm     50% 0.00 in meteobridge W/m2
19:59 46.6 °F 29.5 °F 30.13 in Calm   3.0 mph 51% 0.00 in meteobridge W/m2
20:03 46.4 °F 29.3 °F 30.14 in Calm     51% 0.00 in meteobridge W/m2
20:09 46.0 °F 28.9 °F 30.14 in Calm   5.0 mph 51% 0.00 in meteobridge W/m2
20:13 46.0 °F 28.9 °F 30.14 in Calm   1.0 mph 51% 0.00 in meteobridge W/m2
20:18 45.9 °F 28.8 °F 30.14 in WSW 2.9 mph 4.0 mph 51% 0.00 in meteobridge W/m2
20:24 45.7 °F 28.6 °F 30.14 in Calm   4.0 mph 51% 0.01 in meteobridge W/m2
20:29 45.5 °F 28.9 °F 30.14 in Calm   5.0 mph 52% 0.01 in meteobridge W/m2
20:33 45.3 °F 28.8 °F 30.14 in Calm     52% 0.01 in meteobridge W/m2
20:39 45.1 °F 28.6 °F 30.14 in Calm   3.0 mph 52% 0.01 in meteobridge W/m2
20:44 45.0 °F 28.4 °F 30.14 in Calm   4.0 mph 52% 0.01 in meteobridge W/m2
20:49 44.6 °F 28.6 °F 30.14 in Calm   2.0 mph 53% 0.01 in meteobridge W/m2
20:54 44.2 °F 28.2 °F 30.14 in Calm   1.0 mph 53% 0.01 in meteobridge W/m2
20:59 44.1 °F 28.4 °F 30.15 in Calm   6.0 mph 54% 0.01 in meteobridge W/m2
21:04 43.9 °F 28.4 °F 30.15 in Calm   8.0 mph 54% 0.01 in meteobridge W/m2
21:07 43.7 °F 28.2 °F 30.15 in Calm   3.0 mph 54% 0.01 in meteobridge W/m2
21:13 43.5 °F 28.4 °F 30.16 in Calm   5.0 mph 55% 0.01 in meteobridge W/m2
21:18 43.3 °F 28.2 °F 30.16 in WNW 0.9 mph 5.0 mph 55% 0.00 in meteobridge W/m2
21:24 43.2 °F 28.0 °F 30.16 in Calm   4.0 mph 55% 0.00 in meteobridge W/m2
21:29 43.2 °F 28.0 °F 30.17 in Calm   3.0 mph 55% 0.00 in meteobridge W/m2
21:34 43.2 °F 28.0 °F 30.17 in Calm   3.0 mph 55% 0.00 in meteobridge W/m2
21:38 43.2 °F 28.0 °F 30.17 in Calm   6.0 mph 55% 0.00 in meteobridge W/m2
21:41 43.0 °F 27.9 °F 30.17 in Calm   6.0 mph 55% 0.00 in meteobridge W/m2
21:46 43.0 °F 27.9 °F 30.17 in Calm   6.0 mph 55% 0.00 in meteobridge W/m2
21:54 42.6 °F 28.0 °F 30.17 in NW 2.9 mph 5.0 mph 56% 0.00 in meteobridge W/m2
21:58 42.6 °F 28.0 °F 30.18 in NNW 4.9 mph 5.0 mph 56% 0.00 in meteobridge W/m2
22:04 42.4 °F 28.2 °F 30.18 in West 4.0 mph 6.0 mph 57% 0.00 in meteobridge W/m2
22:09 42.4 °F 28.2 °F 30.18 in West 0.9 mph 4.0 mph 57% 0.00 in meteobridge W/m2
22:14 42.3 °F 28.6 °F 30.18 in Calm   1.0 mph 58% 0.00 in meteobridge W/m2
22:19 42.3 °F 28.6 °F 30.18 in WNW 0.9 mph 5.0 mph 58% 0.00 in meteobridge W/m2
22:23 42.3 °F 28.6 °F 30.18 in Calm   3.0 mph 58% 0.00 in meteobridge W/m2
22:29 42.1 °F 28.8 °F 30.18 in Calm   1.0 mph 59% 0.00 in meteobridge W/m2
22:34 42.1 °F 29.1 °F 30.18 in Calm   5.0 mph 60% 0.00 in meteobridge W/m2
22:39 41.7 °F 29.7 °F 30.18 in Calm   1.0 mph 62% 0.00 in meteobridge W/m2
22:44 41.5 °F 29.8 °F 30.18 in Calm   4.0 mph 63% 0.00 in meteobridge W/m2
22:49 41.5 °F 29.8 °F 30.18 in Calm   4.0 mph 63% 0.00 in meteobridge W/m2
22:52 41.5 °F 29.8 °F 30.18 in WNW 0.9 mph 1.0 mph 63% 0.00 in meteobridge W/m2
22:59 41.4 °F 30.0 °F 30.18 in Calm     64% 0.00 in meteobridge W/m2
23:03 41.4 °F 30.0 °F 30.18 in Calm   1.0 mph 64% 0.00 in meteobridge W/m2
23:09 41.4 °F 29.7 °F 30.18 in Calm     63% 0.00 in meteobridge W/m2
23:14 41.4 °F 29.7 °F 30.19 in WNW 0.9 mph 1.0 mph 63% 0.00 in meteobridge W/m2
23:19 41.4 °F 29.7 °F 30.18 in Calm   1.0 mph 63% 0.00 in meteobridge W/m2
23:24 41.4 °F 29.7 °F 30.19 in Calm   2.0 mph 63% 0.00 in meteobridge W/m2
23:29 41.4 °F 29.7 °F 30.19 in Calm     63% 0.00 in meteobridge W/m2
23:34 41.2 °F 29.5 °F 30.18 in Calm   1.0 mph 63% 0.00 in meteobridge W/m2
23:39 41.2 °F 29.1 °F 30.18 in Calm     62% 0.00 in meteobridge W/m2
23:44 41.2 °F 29.1 °F 30.19 in Calm     62% 0.00 in meteobridge W/m2
23:49 41.2 °F 29.1 °F 30.19 in Calm     62% 0.00 in meteobridge W/m2
23:54 41.2 °F 29.5 °F 30.19 in Calm   2.0 mph 63% 0.00 in meteobridge W/m2
23:59 40.8 °F 29.1 °F 30.19 in Calm     63% 0.00 in meteobridge W/m2
EllijayWeather
Compliments of Weather Underground - 2.5 mb